createdAt,value
2022-11-27T00:01:34.958Z,101878.19
2022-11-27T00:04:03.274Z,101880.72
2022-11-27T00:06:32.379Z,101870.50
2022-11-27T00:09:01.623Z,101874.84
2022-11-27T00:11:32.882Z,101863.88
2022-11-27T00:14:02.162Z,101875.78
2022-11-27T00:16:30.555Z,101859.38
2022-11-27T00:18:58.659Z,101875.53
2022-11-27T00:21:29.206Z,101873.72
2022-11-27T00:23:58.916Z,101880.47
2022-11-27T00:26:31.877Z,101878.78
2022-11-27T00:29:03.906Z,101888.97
2022-11-27T00:31:34.478Z,101891.53
2022-11-27T00:34:03.927Z,101892.38
2022-11-27T00:36:34.383Z,101897.78
2022-11-27T00:39:02.660Z,101896.78
2022-11-27T00:41:31.655Z,101895.88
2022-11-27T00:43:59.979Z,101899.41
2022-11-27T00:46:32.340Z,101897.53
2022-11-27T00:49:01.831Z,101895.78
2022-11-27T00:51:30.674Z,101887.22
2022-11-27T00:53:59.834Z,101891.44
2022-11-27T00:56:30.345Z,101891.59
2022-11-27T00:58:58.830Z,101895.22
2022-11-27T01:01:29.651Z,101891.56
2022-11-27T01:03:59.045Z,101895.69
2022-11-27T01:06:27.673Z,101891.59
2022-11-27T01:08:55.979Z,101897.50
2022-11-27T01:11:26.808Z,101905.09
2022-11-27T01:13:57.487Z,101902.53
2022-11-27T01:16:27.259Z,101905.03
2022-11-27T01:18:58.954Z,101900.75
2022-11-27T01:21:29.367Z,101905.06
2022-11-27T01:23:57.561Z,101906.72
2022-11-27T01:26:26.100Z,101899.97
2022-11-27T01:28:55.152Z,101905.97
2022-11-27T01:31:25.173Z,101911.00
2022-11-27T01:33:55.526Z,101911.78
2022-11-27T01:36:25.262Z,101910.91
2022-11-27T01:38:53.568Z,101907.53
2022-11-27T01:41:23.353Z,101919.44
2022-11-27T01:43:53.328Z,101901.41
2022-11-27T01:46:40.783Z,101909.31
2022-11-27T01:49:26.655Z,101899.00
2022-11-27T01:52:00.196Z,101898.88
2022-11-27T01:54:31.863Z,101906.72
2022-11-27T01:57:02.826Z,101894.84
2022-11-27T01:59:31.400Z,101902.44
2022-11-27T02:01:59.482Z,101903.19
2022-11-27T02:04:27.531Z,101904.78
2022-11-27T02:06:59.888Z,101898.81
2022-11-27T02:09:28.380Z,101899.03
2022-11-27T02:12:03.547Z,101894.56
2022-11-27T02:14:38.539Z,101897.94
2022-11-27T02:17:16.772Z,101897.09
2022-11-27T02:20:03.531Z,101876.78
2022-11-27T02:22:45.168Z,101900.66
2022-11-27T02:25:28.107Z,101893.66
2022-11-27T02:28:06.299Z,101891.19
2022-11-27T02:30:42.595Z,101899.91
2022-11-27T02:33:13.347Z,101902.34
2022-11-27T02:35:48.242Z,101899.75
2022-11-27T02:38:19.725Z,101896.13
2022-11-27T02:40:54.178Z,101901.16
2022-11-27T02:43:26.912Z,101899.47
2022-11-27T02:45:58.975Z,101895.25
2022-11-27T02:48:32.509Z,101896.97
2022-11-27T02:51:02.661Z,101891.81
2022-11-27T02:53:33.353Z,101897.84
2022-11-27T02:56:04.741Z,101897.81
2022-11-27T02:58:33.768Z,101896.16
2022-11-27T03:01:06.451Z,101895.31
2022-11-27T03:03:38.538Z,101880.06
2022-11-27T03:06:10.620Z,101890.28
2022-11-27T03:08:43.158Z,101894.41
2022-11-27T03:11:13.128Z,101893.53
2022-11-27T03:13:44.114Z,101898.66
2022-11-27T03:16:18.436Z,101901.16
2022-11-27T03:18:52.963Z,101902.03
2022-11-27T03:21:27.972Z,101890.03
2022-11-27T03:23:56.118Z,101890.13
2022-11-27T03:26:24.215Z,101902.09
2022-11-27T03:28:54.089Z,101907.13
2022-11-27T03:31:24.197Z,101910.59
2022-11-27T03:33:52.856Z,101909.91
2022-11-27T03:36:22.599Z,101915.94
2022-11-27T03:38:52.721Z,101907.59
2022-11-27T03:41:25.934Z,101910.84
2022-11-27T03:44:00.896Z,101922.78
2022-11-27T03:46:41.337Z,101899.63
2022-11-27T03:49:20.296Z,101914.13
2022-11-27T03:51:57.046Z,101888.50
2022-11-27T03:54:33.440Z,101916.59
2022-11-27T03:57:08.124Z,101890.16
2022-11-27T03:59:40.308Z,101920.84
2022-11-27T04:02:13.952Z,101913.97
2022-11-27T04:04:42.312Z,101913.97
2022-11-27T04:07:17.161Z,101911.41
2022-11-27T04:09:45.160Z,101913.31
2022-11-27T04:12:13.282Z,101915.75
2022-11-27T04:14:41.575Z,101919.22
2022-11-27T04:17:11.088Z,101919.25
2022-11-27T04:19:39.014Z,101918.28
2022-11-27T04:22:07.014Z,101923.44
2022-11-27T04:24:34.923Z,101920.00
2022-11-27T04:27:02.951Z,101916.59
2022-11-27T04:29:30.880Z,101914.88
2022-11-27T04:31:58.837Z,101924.25
2022-11-27T04:34:28.150Z,101924.19
2022-11-27T04:36:56.072Z,101932.75
2022-11-27T04:39:24.026Z,101922.47
2022-11-27T04:41:52.108Z,101927.59
2022-11-27T04:44:22.750Z,101919.91
2022-11-27T04:46:51.033Z,101931.00
2022-11-27T04:49:19.112Z,101936.16
2022-11-27T04:51:48.508Z,101920.75
2022-11-27T04:54:16.512Z,101922.44
2022-11-27T04:56:44.422Z,101917.25
2022-11-27T04:59:12.526Z,101918.06
2022-11-27T05:01:40.449Z,101922.31
2022-11-27T05:04:08.454Z,101920.59
2022-11-27T05:06:36.525Z,101911.19
2022-11-27T05:09:06.045Z,101919.00
2022-11-27T05:11:34.539Z,101923.31
2022-11-27T05:14:18.264Z,101920.88
2022-11-27T05:16:48.066Z,101921.63
2022-11-27T05:19:17.144Z,101916.34
2022-11-27T05:21:46.435Z,101909.47
2022-11-27T05:24:16.929Z,101919.72
2022-11-27T05:26:45.347Z,101919.91
2022-11-27T05:29:14.608Z,101924.25
2022-11-27T05:31:42.859Z,101924.19
2022-11-27T05:34:11.400Z,101919.84
2022-11-27T05:36:40.054Z,101919.97
2022-11-27T05:39:08.777Z,101931.00
2022-11-27T05:41:39.435Z,101925.03
2022-11-27T05:44:08.199Z,101925.22
2022-11-27T05:46:36.391Z,101931.03
2022-11-27T05:49:06.290Z,101935.19
2022-11-27T05:51:34.261Z,101927.53
2022-11-27T05:54:02.420Z,101941.28
2022-11-27T05:56:30.339Z,101937.66
2022-11-27T05:58:59.634Z,101937.72
2022-11-27T06:01:27.622Z,101931.59
2022-11-27T06:03:55.601Z,101931.34
2022-11-27T06:06:23.520Z,101937.25
2022-11-27T06:08:51.538Z,101944.91
2022-11-27T06:11:22.392Z,101954.41
2022-11-27T06:13:51.540Z,101951.94
2022-11-27T06:16:23.094Z,101956.13
2022-11-27T06:18:52.398Z,101962.84
2022-11-27T06:21:21.217Z,101961.91
2022-11-27T06:23:49.858Z,101958.63
2022-11-27T06:26:20.407Z,101945.59
2022-11-27T06:28:50.741Z,101954.75
2022-11-27T06:31:22.325Z,101959.78
2022-11-27T06:33:52.449Z,101958.00
2022-11-27T06:36:21.620Z,101962.16
2022-11-27T06:38:49.543Z,101962.88
2022-11-27T06:41:19.577Z,101961.25
2022-11-27T06:43:47.665Z,101949.09
2022-11-27T06:46:17.290Z,101954.91
2022-11-27T06:48:48.778Z,101959.13
2022-11-27T06:51:18.428Z,101963.34
2022-11-27T06:53:46.705Z,101949.63
2022-11-27T06:56:16.310Z,101949.63
2022-11-27T06:58:45.049Z,101935.88
2022-11-27T07:01:15.663Z,101949.47
2022-11-27T07:03:44.081Z,101949.31
2022-11-27T07:06:16.418Z,101939.75
2022-11-27T07:08:44.629Z,101942.47
2022-11-27T07:11:14.824Z,101942.47
2022-11-27T07:13:43.070Z,101950.97
2022-11-27T07:16:12.965Z,101941.47
2022-11-27T07:18:42.566Z,101942.53
2022-11-27T07:21:10.988Z,101944.25
2022-11-27T07:23:40.706Z,101951.75
2022-11-27T07:26:09.795Z,101946.88
2022-11-27T07:28:38.041Z,101953.56
2022-11-27T07:31:06.770Z,101947.59
2022-11-27T07:33:34.812Z,101950.88
2022-11-27T07:36:05.185Z,101956.88
2022-11-27T07:38:33.309Z,101948.47
2022-11-27T07:41:03.237Z,101944.09
2022-11-27T07:43:32.690Z,101938.94
2022-11-27T07:46:04.489Z,101951.72
2022-11-27T07:48:33.047Z,101952.56
2022-11-27T07:51:01.645Z,101957.91
2022-11-27T07:53:29.715Z,101960.19
2022-11-27T07:56:01.105Z,101955.88
2022-11-27T07:58:30.977Z,101967.69
2022-11-27T08:00:59.223Z,101966.69
2022-11-27T08:03:27.662Z,101974.22
2022-11-27T08:05:55.787Z,101978.78
2022-11-27T08:08:23.771Z,101967.78
2022-11-27T08:10:51.673Z,101973.63
2022-11-27T08:13:19.844Z,101977.75
2022-11-27T08:15:49.517Z,101981.81
2022-11-27T08:18:17.565Z,101983.50
2022-11-27T08:20:45.619Z,101977.50
2022-11-27T08:23:13.537Z,101971.41
2022-11-27T08:25:41.505Z,101980.03
2022-11-27T08:28:09.447Z,101982.06
2022-11-27T08:30:37.372Z,101979.41
2022-11-27T08:33:06.768Z,101964.59
2022-11-27T08:35:35.051Z,101985.84
2022-11-27T08:38:03.260Z,101987.53
2022-11-27T08:40:31.193Z,101985.19
2022-11-27T08:42:59.946Z,101985.34
2022-11-27T08:45:28.022Z,101975.84
2022-11-27T08:47:56.083Z,101987.44
2022-11-27T08:50:25.573Z,101984.59
2022-11-27T08:52:53.593Z,101979.25
2022-11-27T08:55:21.504Z,101977.59
2022-11-27T08:57:49.808Z,101984.34
2022-11-27T09:00:20.512Z,101975.59
2022-11-27T09:02:51.646Z,101985.78
2022-11-27T09:05:19.751Z,101978.81
2022-11-27T09:07:51.366Z,101979.47
2022-11-27T09:10:19.643Z,101981.00
2022-11-27T09:12:47.668Z,101974.16
2022-11-27T09:15:15.823Z,101965.53
2022-11-27T09:17:44.044Z,101970.59
2022-11-27T09:20:14.400Z,101977.50
2022-11-27T09:22:42.446Z,101967.94
2022-11-27T09:25:13.155Z,101954.88
2022-11-27T09:27:41.130Z,101960.56
2022-11-27T09:30:10.130Z,101950.19
2022-11-27T09:32:38.247Z,101949.19
2022-11-27T09:35:09.034Z,101957.88
2022-11-27T09:37:37.104Z,101944.56
2022-11-27T09:40:06.120Z,101945.84
2022-11-27T09:42:49.937Z,101940.44
2022-11-27T09:45:19.221Z,101942.50
2022-11-27T09:47:51.371Z,101945.31
2022-11-27T09:50:22.720Z,101937.72
2022-11-27T09:52:54.913Z,101941.78
2022-11-27T09:55:26.986Z,101943.53
2022-11-27T09:58:03.592Z,101934.03
2022-11-27T10:00:31.751Z,101924.91
2022-11-27T10:03:00.139Z,101937.56
2022-11-27T10:05:34.452Z,101937.44
2022-11-27T10:08:32.320Z,101940.41
2022-11-27T10:11:15.031Z,101912.50
2022-11-27T10:13:58.422Z,101939.00
2022-11-27T10:16:33.961Z,101932.59
2022-11-27T10:19:12.840Z,101927.97
2022-11-27T10:21:49.974Z,101921.69
2022-11-27T10:24:24.867Z,101920.56
2022-11-27T10:26:56.287Z,101911.69
2022-11-27T10:29:37.076Z,101906.53
2022-11-27T10:32:33.004Z,101923.56
2022-11-27T10:35:05.698Z,101913.94
2022-11-27T10:37:40.450Z,101918.06
2022-11-27T10:40:20.083Z,101887.22
2022-11-27T10:42:52.978Z,101906.56
2022-11-27T10:45:26.293Z,101899.50
2022-11-27T10:47:54.392Z,101898.53
2022-11-27T10:50:22.608Z,101893.25
2022-11-27T10:52:55.936Z,101884.81
2022-11-27T10:55:36.081Z,101884.63
2022-11-27T10:58:10.184Z,101891.25
2022-11-27T11:00:39.818Z,101886.16
2022-11-27T11:03:08.564Z,101887.66
2022-11-27T11:05:57.459Z,101889.47
2022-11-27T11:08:26.337Z,101881.84
2022-11-27T11:10:55.684Z,101877.56
2022-11-27T11:13:27.425Z,101869.66
2022-11-27T11:15:59.886Z,101877.06
2022-11-27T11:18:30.159Z,101867.75
2022-11-27T11:21:00.115Z,101870.44
2022-11-27T11:23:32.244Z,101863.25
2022-11-27T11:26:05.248Z,101860.31
2022-11-27T11:28:39.563Z,101853.13
2022-11-27T11:31:19.528Z,101856.63
2022-11-27T11:33:55.824Z,101857.44
2022-11-27T11:36:24.120Z,101867.69
2022-11-27T11:38:53.261Z,101859.56
2022-11-27T11:41:21.857Z,101843.19
2022-11-27T11:43:59.572Z,101850.69
2022-11-27T11:46:32.253Z,101847.84
2022-11-27T11:49:03.686Z,101847.91
2022-11-27T11:51:59.140Z,101842.50
2022-11-27T11:54:39.701Z,101838.72
2022-11-27T11:57:25.682Z,101840.75
2022-11-27T12:00:04.145Z,101833.94
2022-11-27T12:02:54.657Z,101832.88
2022-11-27T12:05:31.372Z,101831.88
2022-11-27T12:08:28.400Z,101834.25
2022-11-27T12:11:06.901Z,101825.53
2022-11-27T12:13:46.396Z,101828.84
2022-11-27T12:16:24.275Z,101824.44
2022-11-27T12:19:27.806Z,101827.81
2022-11-27T12:22:05.247Z,101805.56
2022-11-27T12:24:45.464Z,101829.34
2022-11-27T12:27:28.402Z,101827.41
2022-11-27T12:30:06.931Z,101823.03
2022-11-27T12:32:50.078Z,101817.00
2022-11-27T12:35:32.867Z,101814.31
2022-11-27T12:38:26.565Z,101810.56
2022-11-27T12:41:13.198Z,101806.03
2022-11-27T12:43:46.577Z,101810.31
2022-11-27T12:46:20.237Z,101807.63
2022-11-27T12:48:54.773Z,101811.91
2022-11-27T12:51:28.356Z,101805.94
2022-11-27T12:54:01.239Z,101806.91
2022-11-27T12:56:34.274Z,101806.72
2022-11-27T12:59:10.419Z,101798.94
2022-11-27T13:01:44.563Z,101797.47
2022-11-27T13:04:18.477Z,101805.22
2022-11-27T13:06:55.642Z,101801.81
2022-11-27T13:09:35.629Z,101801.81
2022-11-27T13:12:04.949Z,101800.31
2022-11-27T13:14:39.558Z,101806.31
2022-11-27T13:17:16.423Z,101795.13
2022-11-27T13:19:47.941Z,101798.41
2022-11-27T13:22:21.742Z,101807.00
2022-11-27T13:24:49.744Z,101783.94
2022-11-27T13:27:20.063Z,101805.03
2022-11-27T13:29:52.056Z,101800.72
2022-11-27T13:32:23.853Z,101802.00
2022-11-27T13:34:53.319Z,101794.56
2022-11-27T13:37:32.615Z,101789.72
2022-11-27T13:40:04.180Z,101796.31
2022-11-27T13:42:34.740Z,101803.25
2022-11-27T13:45:07.814Z,101806.47
2022-11-27T13:47:40.315Z,101799.84
2022-11-27T13:50:11.008Z,101796.38
2022-11-27T13:52:54.837Z,101798.75
2022-11-27T13:55:29.243Z,101805.63
2022-11-27T13:58:00.039Z,101807.31
2022-11-27T14:00:37.424Z,101792.03
2022-11-27T14:03:06.962Z,101799.59
2022-11-27T14:05:38.613Z,101798.84
2022-11-27T14:08:18.812Z,101807.50
2022-11-27T14:10:59.590Z,101803.13
2022-11-27T14:13:37.677Z,101803.81
2022-11-27T14:16:27.344Z,101796.88
2022-11-27T14:18:58.482Z,101795.06
2022-11-27T14:21:40.543Z,101750.00
2022-11-27T14:24:29.504Z,101778.53
2022-11-27T14:26:58.741Z,101794.22
2022-11-27T14:29:31.099Z,101787.09
2022-11-27T14:32:01.148Z,101785.31
2022-11-27T14:34:30.790Z,101783.47
2022-11-27T14:36:59.571Z,101791.25
2022-11-27T14:39:31.430Z,101785.13
2022-11-27T14:42:01.408Z,101773.91
2022-11-27T14:44:29.712Z,101785.78
2022-11-27T14:46:59.406Z,101781.59
2022-11-27T14:49:29.915Z,101785.78
2022-11-27T14:52:01.717Z,101782.44
2022-11-27T14:54:34.163Z,101777.31
2022-11-27T14:57:03.103Z,101770.53
2022-11-27T14:59:31.820Z,101776.59
2022-11-27T15:02:03.551Z,101777.03
2022-11-27T15:04:36.267Z,101762.50
2022-11-27T15:07:07.973Z,101781.44
2022-11-27T15:09:38.215Z,101778.69
2022-11-27T15:12:15.811Z,101776.91
2022-11-27T15:14:48.368Z,101788.00
2022-11-27T15:17:18.991Z,101784.63
2022-11-27T15:19:47.945Z,101782.25
2022-11-27T15:22:19.089Z,101794.34
2022-11-27T15:24:59.039Z,101795.56
2022-11-27T15:27:27.367Z,101784.44
2022-11-27T15:30:14.115Z,101791.84
2022-11-27T15:32:51.568Z,101790.25
2022-11-27T15:35:25.597Z,101788.84
2022-11-27T15:37:55.974Z,101796.84
2022-11-27T15:40:30.573Z,101794.94
2022-11-27T15:42:58.579Z,101792.25
2022-11-27T15:45:30.176Z,101789.66
2022-11-27T15:48:02.583Z,101790.78
2022-11-27T15:50:31.583Z,101800.09
2022-11-27T15:53:00.987Z,101800.16
2022-11-27T15:55:30.836Z,101780.53
2022-11-27T15:57:58.784Z,101785.63
2022-11-27T16:00:27.402Z,101783.06
2022-11-27T16:02:55.597Z,101781.28
2022-11-27T16:05:23.666Z,101792.38
2022-11-27T16:07:55.164Z,101783.78
2022-11-27T16:10:23.570Z,101782.06
2022-11-27T16:12:55.415Z,101771.09
2022-11-27T16:15:25.745Z,101783.97
2022-11-27T16:17:55.528Z,101784.03
2022-11-27T16:20:23.474Z,101775.00
2022-11-27T16:22:53.181Z,101778.47
2022-11-27T16:25:21.218Z,101760.47
2022-11-27T16:27:49.240Z,101764.53
2022-11-27T16:30:20.232Z,101775.66
2022-11-27T16:32:48.221Z,101767.13
2022-11-27T16:35:16.335Z,101770.47
2022-11-27T16:37:44.267Z,101767.19
2022-11-27T16:40:13.607Z,101771.56
2022-11-27T16:42:41.708Z,101775.97
2022-11-27T16:45:10.487Z,101767.44
2022-11-27T16:47:39.945Z,101774.34
2022-11-27T16:50:09.926Z,101762.41
2022-11-27T16:52:37.993Z,101773.50
2022-11-27T16:55:07.051Z,101782.09
2022-11-27T16:57:35.079Z,101778.66
2022-11-27T17:00:03.115Z,101782.13
2022-11-27T17:02:31.224Z,101780.50
2022-11-27T17:05:00.683Z,101783.13
2022-11-27T17:07:28.689Z,101779.78
2022-11-27T17:09:56.701Z,101791.72
2022-11-27T17:12:24.682Z,101784.06
2022-11-27T17:14:52.794Z,101785.28
2022-11-27T17:17:20.968Z,101789.56
2022-11-27T17:19:49.355Z,101791.03
2022-11-27T17:22:18.957Z,101785.78
2022-11-27T17:24:46.948Z,101782.75
2022-11-27T17:27:15.165Z,101784.31
2022-11-27T17:29:43.405Z,101782.44
2022-11-27T17:32:13.054Z,101779.03
2022-11-27T17:34:41.339Z,101778.19
2022-11-27T17:37:09.444Z,101776.59
2022-11-27T17:39:41.006Z,101772.16
2022-11-27T17:42:13.378Z,101766.09
2022-11-27T17:44:43.438Z,101781.50
2022-11-27T17:47:11.477Z,101773.88
2022-11-27T17:49:39.787Z,101773.00
2022-11-27T17:52:08.050Z,101770.66
2022-11-27T17:54:36.156Z,101773.53
2022-11-27T17:57:05.550Z,101771.50
2022-11-27T17:59:33.534Z,101763.56
2022-11-27T18:02:01.555Z,101758.41
2022-11-27T18:04:31.114Z,101759.28
2022-11-27T18:06:59.270Z,101747.47
2022-11-27T18:09:27.270Z,101754.34
2022-11-27T18:11:57.303Z,101756.81
2022-11-27T18:14:26.649Z,101759.41
2022-11-27T18:16:54.578Z,101763.69
2022-11-27T18:19:22.893Z,101760.31
2022-11-27T18:21:50.930Z,101753.44
2022-11-27T18:24:24.035Z,101753.38
2022-11-27T18:29:44.824Z,101749.13
2022-11-27T18:32:14.415Z,101755.19
2022-11-27T18:34:42.735Z,101756.97
2022-11-27T18:37:11.488Z,101748.44
2022-11-27T18:39:40.800Z,101755.47
2022-11-27T18:42:09.222Z,101764.06
2022-11-27T18:44:44.341Z,101764.03
2022-11-27T18:47:15.525Z,101768.16
2022-11-27T18:49:44.351Z,101762.06
2022-11-27T18:52:13.010Z,101757.81
2022-11-27T18:54:41.191Z,101758.75
2022-11-27T18:57:10.132Z,101753.59
2022-11-27T18:59:38.583Z,101753.63
2022-11-27T19:02:07.029Z,101757.28
2022-11-27T19:04:38.908Z,101758.19
2022-11-27T19:07:07.409Z,101752.25
2022-11-27T19:09:35.438Z,101753.88
2022-11-27T19:12:03.597Z,101752.25
2022-11-27T19:14:32.185Z,101762.53
2022-11-27T19:17:00.389Z,101747.94
2022-11-27T19:22:20.031Z,101752.22
2022-11-27T19:24:48.142Z,101748.81
2022-11-27T19:27:16.267Z,101746.19
2022-11-27T19:29:44.374Z,101734.28
2022-11-27T19:32:12.462Z,101752.31
2022-11-27T19:34:40.788Z,101757.41
2022-11-27T19:37:09.064Z,101756.50
2022-11-27T19:39:38.486Z,101760.00
2022-11-27T19:42:06.929Z,101758.44
2022-11-27T19:44:34.981Z,101767.06
2022-11-27T19:47:02.891Z,101764.56
2022-11-27T19:49:30.738Z,101767.94
2022-11-27T19:51:59.051Z,101761.91
2022-11-27T19:54:27.186Z,101773.03
2022-11-27T19:56:56.630Z,101785.91
2022-11-27T19:59:26.191Z,101775.03
2022-11-27T20:01:54.263Z,101770.63
2022-11-27T20:04:22.412Z,101774.75
2022-11-27T20:06:52.535Z,101741.44
2022-11-27T20:09:20.494Z,101762.72
2022-11-27T20:11:48.330Z,101766.03
2022-11-27T20:14:19.512Z,101758.38
2022-11-27T20:16:47.542Z,101750.78
2022-11-27T20:19:16.030Z,101762.78
2022-11-27T20:21:44.353Z,101766.03
2022-11-27T20:24:12.780Z,101771.28
2022-11-27T20:26:42.799Z,101757.63
2022-11-27T20:29:11.601Z,101766.19
2022-11-27T20:31:44.572Z,101771.41
2022-11-27T20:34:18.847Z,101769.72
2022-11-27T20:36:47.182Z,101769.81
2022-11-27T20:39:20.922Z,101770.78
2022-11-27T20:41:49.706Z,101771.69
2022-11-27T20:44:17.806Z,101769.91
2022-11-27T20:46:47.330Z,101768.09
2022-11-27T20:49:15.386Z,101768.09
2022-11-27T20:51:43.727Z,101773.31
2022-11-27T20:54:12.839Z,101773.38
2022-11-27T20:56:43.339Z,101767.38
2022-11-27T20:59:12.492Z,101764.75
2022-11-27T21:01:42.784Z,101762.28
2022-11-27T21:04:19.916Z,101762.31
2022-11-27T21:06:48.241Z,101769.09
2022-11-27T21:09:16.337Z,101763.06
2022-11-27T21:11:45.075Z,101754.59
2022-11-27T21:14:15.525Z,101757.16
2022-11-27T21:16:46.201Z,101764.78
2022-11-27T21:19:17.636Z,101763.16
2022-11-27T21:21:45.843Z,101757.16
2022-11-27T21:24:13.998Z,101750.25
2022-11-27T21:26:42.639Z,101754.56
2022-11-27T21:29:12.292Z,101749.44
2022-11-27T21:31:46.208Z,101758.00
2022-11-27T21:34:16.591Z,101746.97
2022-11-27T21:36:44.557Z,101744.31
2022-11-27T21:39:20.391Z,101737.41
2022-11-27T21:41:50.039Z,101737.41
2022-11-27T21:44:18.322Z,101747.72
2022-11-27T21:46:46.946Z,101745.97
2022-11-27T21:49:17.414Z,101740.81
2022-11-27T21:51:45.621Z,101737.38
2022-11-27T21:54:15.979Z,101747.53
2022-11-27T21:56:43.862Z,101733.97
2022-11-27T21:59:14.203Z,101737.22
2022-11-27T22:01:42.415Z,101727.72
2022-11-27T22:04:10.426Z,101715.84
2022-11-27T22:06:41.524Z,101722.66
2022-11-27T22:09:15.124Z,101716.78
2022-11-27T22:11:43.601Z,101720.16
2022-11-27T22:14:11.503Z,101718.34
2022-11-27T22:16:45.133Z,101716.63
2022-11-27T22:19:14.803Z,101711.03
2022-11-27T22:21:44.704Z,101715.09
2022-11-27T22:24:18.473Z,101713.28
2022-11-27T22:26:47.279Z,101720.03
2022-11-27T22:29:15.140Z,101710.53
2022-11-27T22:31:43.033Z,101706.22
2022-11-27T22:34:10.987Z,101707.13
2022-11-27T22:36:38.905Z,101702.97
2022-11-27T22:39:08.812Z,101696.00
2022-11-27T22:41:38.269Z,101685.75
2022-11-27T22:44:07.678Z,101688.63
2022-11-27T22:46:37.361Z,101687.59
2022-11-27T22:49:07.364Z,101687.38
2022-11-27T22:51:36.970Z,101689.03
2022-11-27T22:54:06.400Z,101688.16
2022-11-27T22:56:36.284Z,101688.09
2022-11-27T22:59:31.073Z,101689.84
2022-11-27T23:01:53.854Z,101682.88
2022-11-27T23:04:21.779Z,101681.25
2022-11-27T23:06:49.739Z,101675.34
2022-11-27T23:09:18.961Z,101683.03
2022-11-27T23:11:48.840Z,101675.38
2022-11-27T23:14:16.985Z,101665.22
2022-11-27T23:16:44.897Z,101683.94
2022-11-27T23:19:13.390Z,101674.50
2022-11-27T23:21:41.707Z,101643.09
2022-11-27T23:24:13.358Z,101672.91
2022-11-27T23:26:41.330Z,101675.63
2022-11-27T23:29:10.914Z,101676.34
2022-11-27T23:31:39.507Z,101675.47
2022-11-27T23:34:13.213Z,101672.94
2022-11-27T23:36:41.230Z,101678.94
2022-11-27T23:39:10.242Z,101667.78
2022-11-27T23:41:38.141Z,101680.53
2022-11-27T23:44:06.300Z,101676.25
2022-11-27T23:46:35.714Z,101674.59
2022-11-27T23:49:03.584Z,101666.75
2022-11-27T23:51:33.384Z,101676.59
2022-11-27T23:54:02.429Z,101660.22
2022-11-27T23:56:32.608Z,101663.56
2022-11-27T23:59:01.331Z,101668.63
